Time,TemperatureF,DewpointF,PressureIn,WindDirection,WindDirectionDegrees,WindSpeedMPH,WindSpeedGustMPH,Humidity,HourlyPrecipIn,Conditions,Clouds,dailyrainin,SoftwareType,DateUTC
2013-02-10 00:11:00,27.0,4.0,-100.00,SW,225,0.0,0.0,36,-99.99,,,-99.99,,2013-02-10 05:11:00,
2013-02-10 00:23:00,27.0,4.0,-100.00,SW,225,0.0,0.0,36,-99.99,,,-99.99,,2013-02-10 05:23:00,
2013-02-10 00:32:00,27.0,4.0,-100.00,West,280,0.0,0.0,37,-99.99,,,-99.99,,2013-02-10 05:32:00,
2013-02-10 00:52:00,26.0,4.0,-100.00,West,265,0.0,0.0,39,-99.99,,,-99.99,,2013-02-10 05:52:00,
2013-02-10 01:11:00,26.0,5.0,-100.00,West,270,0.0,0.0,39,-99.99,,,-99.99,,2013-02-10 06:11:00,
2013-02-10 01:21:00,26.0,5.0,-100.00,West,270,0.0,0.0,39,-99.99,,,-99.99,,2013-02-10 06:21:00,
2013-02-10 01:32:00,26.0,5.0,-100.00,WSW,250,0.0,0.0,40,-99.99,,,-99.99,,2013-02-10 06:32:00,
2013-02-10 01:52:00,25.0,5.0,-100.00,West,275,0.0,0.0,42,-99.99,,,-99.99,,2013-02-10 06:52:00,
2013-02-10 02:11:00,26.0,5.0,-100.00,SW,225,0.0,0.0,41,-99.99,,,-99.99,,2013-02-10 07:11:00,
2013-02-10 02:21:00,26.0,5.0,-100.00,SW,225,0.0,0.0,41,-99.99,,,-99.99,,2013-02-10 07:21:00,
2013-02-10 02:32:00,25.0,5.0,-100.00,West,265,0.0,0.0,42,-99.99,,,-99.99,,2013-02-10 07:32:00,
2013-02-10 02:52:00,28.0,5.0,-100.00,WSW,255,0.0,0.0,37,-99.99,,,-99.99,,2013-02-10 07:52:00,
2013-02-10 03:11:00,27.0,6.0,-100.00,SW,235,0.0,0.0,39,-99.99,,,-99.99,,2013-02-10 08:11:00,
2013-02-10 03:21:00,27.0,6.0,-100.00,SW,235,0.0,0.0,39,-99.99,,,-99.99,,2013-02-10 08:21:00,
2013-02-10 03:32:00,28.0,5.0,-100.00,SW,230,0.0,0.0,38,-99.99,,,-99.99,,2013-02-10 08:32:00,
2013-02-10 03:43:00,28.0,5.0,-100.00,SW,230,0.0,0.0,38,-99.99,,,-99.99,,2013-02-10 08:43:00,
2013-02-10 03:52:00,26.0,6.0,-100.00,WSW,240,0.0,0.0,41,-99.99,,,-99.99,,2013-02-10 08:52:00,
2013-02-10 04:02:00,26.0,6.0,-100.00,WSW,240,0.0,0.0,41,-99.99,,,-99.99,,2013-02-10 09:02:00,
2013-02-10 04:11:00,26.0,6.0,-100.00,WSW,240,0.0,0.0,43,-99.99,,,-99.99,,2013-02-10 09:11:00,
2013-02-10 04:21:00,26.0,6.0,-100.00,WSW,240,0.0,0.0,43,-99.99,,,-99.99,,2013-02-10 09:21:00,
2013-02-10 04:32:00,27.0,6.0,-100.00,WSW,250,0.0,0.0,42,-99.99,,,-99.99,,2013-02-10 09:32:00,
2013-02-10 04:42:00,27.0,6.0,-100.00,WSW,250,0.0,0.0,42,-99.99,,,-99.99,,2013-02-10 09:42:00,
2013-02-10 04:52:00,24.0,6.0,-100.00,South,185,0.0,0.0,45,-99.99,,,-99.99,,2013-02-10 09:52:00,
2013-02-10 05:01:00,24.0,6.0,-100.00,South,185,0.0,0.0,45,-99.99,,,-99.99,,2013-02-10 10:01:00,
2013-02-10 05:11:00,23.0,6.0,-100.00,South,190,0.0,0.0,47,-99.99,,,-99.99,,2013-02-10 10:11:00,
2013-02-10 05:21:00,23.0,6.0,-100.00,South,190,0.0,0.0,47,-99.99,,,-99.99,,2013-02-10 10:21:00,
2013-02-10 05:32:00,22.0,6.0,-100.00,South,190,0.0,0.0,48,-99.99,,,-99.99,,2013-02-10 10:32:00,
2013-02-10 05:42:00,22.0,6.0,-100.00,South,190,0.0,0.0,48,-99.99,,,-99.99,,2013-02-10 10:42:00,
2013-02-10 05:52:00,23.0,7.0,-100.00,South,175,0.0,0.0,49,-99.99,,,-99.99,,2013-02-10 10:52:00,
2013-02-10 06:01:00,23.0,7.0,-100.00,South,175,0.0,0.0,49,-99.99,,,-99.99,,2013-02-10 11:01:00,
2013-02-10 06:11:00,24.0,7.0,-100.00,ESE,110,0.0,0.0,48,-99.99,,,-99.99,,2013-02-10 11:11:00,
2013-02-10 06:22:00,24.0,7.0,-100.00,ESE,110,0.0,0.0,48,-99.99,,,-99.99,,2013-02-10 11:22:00,
2013-02-10 06:32:00,24.0,6.0,-100.00,East,85,0.0,0.0,47,-99.99,,,-99.99,,2013-02-10 11:32:00,
2013-02-10 06:42:00,24.0,6.0,-100.00,East,85,0.0,0.0,47,-99.99,,,-99.99,,2013-02-10 11:42:00,
2013-02-10 06:52:00,24.0,6.0,-100.00,ENE,75,0.0,0.0,47,-99.99,,,-99.99,,2013-02-10 11:52:00,
2013-02-10 07:02:00,24.0,6.0,-100.00,ENE,75,0.0,0.0,47,-99.99,,,-99.99,,2013-02-10 12:02:00,
2013-02-10 07:12:00,24.0,6.0,-100.00,East,80,0.0,0.0,47,-99.99,,,-99.99,,2013-02-10 12:12:00,
2013-02-10 07:22:00,24.0,6.0,-100.00,East,80,0.0,0.0,47,-99.99,,,-99.99,,2013-02-10 12:22:00,
2013-02-10 07:32:00,25.0,7.0,-100.00,East,85,0.0,0.0,45,-99.99,,,-99.99,,2013-02-10 12:32:00,
2013-02-10 07:42:00,25.0,7.0,-100.00,East,85,0.0,0.0,45,-99.99,,,-99.99,,2013-02-10 12:42:00,
2013-02-10 07:52:00,25.0,6.0,-100.00,ENE,75,0.0,0.0,45,-99.99,,,-99.99,,2013-02-10 12:52:00,
2013-02-10 08:02:00,25.0,6.0,-100.00,ENE,75,0.0,0.0,45,-99.99,,,-99.99,,2013-02-10 13:02:00,
2013-02-10 08:12:00,23.0,7.0,-100.00,East,80,0.0,0.0,49,-99.99,,,-99.99,,2013-02-10 13:12:00,
2013-02-10 08:21:00,23.0,7.0,-100.00,East,80,0.0,0.0,49,-99.99,,,-99.99,,2013-02-10 13:21:00,
2013-02-10 08:31:00,25.0,8.0,-100.00,ENE,70,0.0,0.0,49,-99.99,,,-99.99,,2013-02-10 13:31:00,
2013-02-10 08:42:00,25.0,8.0,-100.00,ENE,70,0.0,0.0,49,-99.99,,,-99.99,,2013-02-10 13:42:00,
2013-02-10 08:52:00,26.0,8.0,-100.00,East,80,0.0,0.0,47,-99.99,,,-99.99,,2013-02-10 13:52:00,
2013-02-10 09:02:00,26.0,8.0,-100.00,East,80,0.0,0.0,47,-99.99,,,-99.99,,2013-02-10 14:02:00,
2013-02-10 09:11:00,27.0,9.0,-100.00,ENE,70,0.0,0.0,45,-99.99,,,-99.99,,2013-02-10 14:11:00,
2013-02-10 09:22:00,27.0,9.0,-100.00,ENE,70,0.0,0.0,45,-99.99,,,-99.99,,2013-02-10 14:22:00,
2013-02-10 09:32:00,28.0,9.0,-100.00,ENE,65,0.0,0.0,44,-99.99,,,-99.99,,2013-02-10 14:32:00,
2013-02-10 09:42:00,28.0,9.0,-100.00,ENE,65,0.0,0.0,44,-99.99,,,-99.99,,2013-02-10 14:42:00,
2013-02-10 09:52:00,28.0,9.0,-100.00,ENE,65,0.0,0.0,44,-99.99,,,-99.99,,2013-02-10 14:52:00,
2013-02-10 10:02:00,28.0,9.0,-100.00,ENE,65,0.0,0.0,44,-99.99,,,-99.99,,2013-02-10 15:02:00,
2013-02-10 10:12:00,29.0,10.0,-100.00,NE,45,0.0,0.0,45,-99.99,,,-99.99,,2013-02-10 15:12:00,
2013-02-10 10:22:00,29.0,10.0,-100.00,NE,45,0.0,0.0,45,-99.99,,,-99.99,,2013-02-10 15:22:00,
2013-02-10 10:32:00,31.0,10.0,-100.00,ENE,65,0.0,0.0,41,-99.99,,,-99.99,,2013-02-10 15:32:00,
2013-02-10 10:42:00,31.0,10.0,-100.00,ENE,65,0.0,0.0,41,-99.99,,,-99.99,,2013-02-10 15:42:00,
2013-02-10 10:52:00,32.0,9.0,-100.00,SE,130,0.0,0.0,37,-99.99,,,-99.99,,2013-02-10 15:52:00,
2013-02-10 11:12:00,32.0,7.0,-100.00,ENE,60,0.0,0.0,35,-99.99,,,-99.99,,2013-02-10 16:12:00,
2013-02-10 11:22:00,32.0,7.0,-100.00,ENE,60,0.0,0.0,35,-99.99,,,-99.99,,2013-02-10 16:22:00,
2013-02-10 11:32:00,32.0,8.0,-100.00,ENE,60,0.0,0.0,37,-99.99,,,-99.99,,2013-02-10 16:32:00,
2013-02-10 11:42:00,32.0,8.0,-100.00,ENE,60,0.0,0.0,37,-99.99,,,-99.99,,2013-02-10 16:42:00,
2013-02-10 11:52:00,33.0,8.0,-100.00,ENE,60,0.0,0.0,35,-99.99,,,-99.99,,2013-02-10 16:52:00,
2013-02-10 12:02:00,33.0,8.0,-100.00,ENE,60,0.0,0.0,35,-99.99,,,-99.99,,2013-02-10 17:02:00,
2013-02-10 12:12:00,34.0,8.0,-100.00,ENE,70,0.0,0.0,33,-99.99,,,-99.99,,2013-02-10 17:12:00,
2013-02-10 12:22:00,34.0,8.0,-100.00,ENE,70,0.0,0.0,33,-99.99,,,-99.99,,2013-02-10 17:22:00,
2013-02-10 12:32:00,35.0,8.0,-100.00,ENE,65,0.0,0.0,31,-99.99,,,-99.99,,2013-02-10 17:32:00,
2013-02-10 12:42:00,35.0,8.0,-100.00,ENE,65,0.0,0.0,31,-99.99,,,-99.99,,2013-02-10 17:42:00,
2013-02-10 12:53:00,35.0,6.0,-100.00,ENE,65,0.0,0.0,29,-99.99,,,-99.99,,2013-02-10 17:53:00,
2013-02-10 13:12:00,36.0,6.0,-100.00,ENE,65,0.0,0.0,28,-99.99,,,-99.99,,2013-02-10 18:12:00,
2013-02-10 13:22:00,36.0,6.0,-100.00,ENE,65,0.0,0.0,28,-99.99,,,-99.99,,2013-02-10 18:22:00,
2013-02-10 13:32:00,37.0,6.0,-100.00,ENE,70,0.0,0.0,28,-99.99,,,-99.99,,2013-02-10 18:32:00,
2013-02-10 13:52:00,38.0,7.0,-100.00,East,100,0.0,0.0,27,-99.99,,,-99.99,,2013-02-10 18:52:00,
2013-02-10 14:02:00,38.0,7.0,-100.00,East,100,0.0,0.0,27,-99.99,,,-99.99,,2013-02-10 19:02:00,
2013-02-10 14:12:00,38.0,6.0,-100.00,ENE,70,0.0,0.0,26,-99.99,,,-99.99,,2013-02-10 19:12:00,
2013-02-10 14:22:00,38.0,6.0,-100.00,ENE,70,0.0,0.0,26,-99.99,,,-99.99,,2013-02-10 19:22:00,
2013-02-10 14:32:00,39.0,6.0,-100.00,East,85,0.0,0.0,25,-99.99,,,-99.99,,2013-02-10 19:32:00,
2013-02-10 14:43:00,39.0,6.0,-100.00,East,85,0.0,0.0,25,-99.99,,,-99.99,,2013-02-10 19:43:00,
2013-02-10 14:52:00,40.0,7.0,-100.00,ENE,65,0.0,0.0,25,-99.99,,,-99.99,,2013-02-10 19:52:00,
2013-02-10 15:02:00,40.0,7.0,-100.00,ENE,65,0.0,0.0,25,-99.99,,,-99.99,,2013-02-10 20:02:00,
2013-02-10 15:11:00,39.0,6.0,-100.00,East,80,0.0,0.0,25,-99.99,,,-99.99,,2013-02-10 20:11:00,
2013-02-10 15:22:00,39.0,6.0,-100.00,East,80,0.0,0.0,25,-99.99,,,-99.99,,2013-02-10 20:22:00,
2013-02-10 15:32:00,39.0,6.0,-100.00,ENE,65,0.0,0.0,25,-99.99,,,-99.99,,2013-02-10 20:32:00,
2013-02-10 15:52:00,40.0,7.0,-100.00,East,95,0.0,0.0,25,-99.99,,,-99.99,,2013-02-10 20:52:00,
2013-02-10 16:02:00,40.0,7.0,-100.00,East,95,0.0,0.0,25,-99.99,,,-99.99,,2013-02-10 21:02:00,
2013-02-10 16:12:00,40.0,7.0,-100.00,East,95,0.0,0.0,25,-99.99,,,-99.99,,2013-02-10 21:12:00,
2013-02-10 16:22:00,40.0,7.0,-100.00,East,95,0.0,0.0,25,-99.99,,,-99.99,,2013-02-10 21:22:00,
2013-02-10 16:32:00,40.0,7.0,-100.00,East,100,0.0,0.0,25,-99.99,,,-99.99,,2013-02-10 21:32:00,
2013-02-10 16:52:00,40.0,7.0,-100.00,East,80,0.0,0.0,25,-99.99,,,-99.99,,2013-02-10 21:52:00,
2013-02-10 17:12:00,40.0,7.0,-100.00,ENE,75,0.0,0.0,25,-99.99,,,-99.99,,2013-02-10 22:12:00,
2013-02-10 17:22:00,40.0,7.0,-100.00,ENE,75,0.0,0.0,25,-99.99,,,-99.99,,2013-02-10 22:22:00,
2013-02-10 17:32:00,39.0,6.0,-100.00,East,80,0.0,0.0,25,-99.99,,,-99.99,,2013-02-10 22:32:00,
2013-02-10 17:53:00,39.0,7.0,-100.00,ENE,70,0.0,0.0,26,-99.99,,,-99.99,,2013-02-10 22:53:00,
2013-02-10 18:12:00,38.0,7.0,-100.00,ENE,70,0.0,0.0,27,-99.99,,,-99.99,,2013-02-10 23:12:00,
2013-02-10 18:22:00,38.0,7.0,-100.00,ENE,70,0.0,0.0,27,-99.99,,,-99.99,,2013-02-10 23:22:00,
2013-02-10 18:32:00,38.0,7.0,-100.00,ENE,70,0.0,0.0,27,-99.99,,,-99.99,,2013-02-10 23:32:00,
2013-02-10 18:52:00,38.0,8.0,-100.00,ENE,65,0.0,0.0,28,-99.99,,,-99.99,,2013-02-10 23:52:00,
2013-02-10 19:11:00,38.0,8.0,-100.00,ENE,65,0.0,0.0,28,-99.99,,,-99.99,,2013-02-11 00:11:00,
2013-02-10 19:22:00,38.0,8.0,-100.00,ENE,65,0.0,0.0,28,-99.99,,,-99.99,,2013-02-11 00:22:00,
2013-02-10 19:32:00,38.0,8.0,-100.00,NE,55,0.0,0.0,28,-99.99,,,-99.99,,2013-02-11 00:32:00,
2013-02-10 19:52:00,38.0,8.0,-100.00,East,80,0.0,0.0,28,-99.99,,,-99.99,,2013-02-11 00:52:00,
2013-02-10 20:11:00,38.0,7.0,-100.00,ENE,65,0.0,0.0,28,-99.99,,,-99.99,,2013-02-11 01:11:00,
2013-02-10 20:21:00,38.0,7.0,-100.00,ENE,65,0.0,0.0,28,-99.99,,,-99.99,,2013-02-11 01:21:00,
2013-02-10 20:32:00,38.0,7.0,-100.00,East,85,0.0,0.0,28,-99.99,,,-99.99,,2013-02-11 01:32:00,
2013-02-10 20:52:00,38.0,7.0,-100.00,ENE,65,0.0,0.0,28,-99.99,,,-99.99,,2013-02-11 01:52:00,
2013-02-10 21:11:00,38.0,7.0,-100.00,ENE,75,0.0,0.0,28,-99.99,,,-99.99,,2013-02-11 02:11:00,
2013-02-10 21:21:00,38.0,7.0,-100.00,ENE,75,0.0,0.0,28,-99.99,,,-99.99,,2013-02-11 02:21:00,
2013-02-10 21:32:00,37.0,7.0,-100.00,ENE,75,0.0,0.0,28,-99.99,,,-99.99,,2013-02-11 02:32:00,
2013-02-10 21:52:00,37.0,8.0,-100.00,ENE,65,0.0,0.0,29,-99.99,,,-99.99,,2013-02-11 02:52:00,
2013-02-10 22:11:00,37.0,8.0,-100.00,ENE,65,0.0,0.0,30,-99.99,,,-99.99,,2013-02-11 03:11:00,
2013-02-10 22:21:00,37.0,8.0,-100.00,ENE,65,0.0,0.0,30,-99.99,,,-99.99,,2013-02-11 03:21:00,
2013-02-10 22:32:00,37.0,8.0,-100.00,ENE,65,0.0,0.0,30,-99.99,,,-99.99,,2013-02-11 03:32:00,
2013-02-10 22:52:00,37.0,8.0,-100.00,ENE,60,0.0,0.0,30,-99.99,,,-99.99,,2013-02-11 03:52:00,
2013-02-10 23:11:00,37.0,9.0,-100.00,ENE,65,0.0,0.0,31,-99.99,,,-99.99,,2013-02-11 04:11:00,
2013-02-10 23:22:00,37.0,9.0,-100.00,ENE,65,0.0,0.0,31,-99.99,,,-99.99,,2013-02-11 04:22:00,
2013-02-10 23:32:00,37.0,9.0,-100.00,ENE,70,0.0,0.0,31,-99.99,,,-99.99,,2013-02-11 04:32:00,
2013-02-10 23:52:00,37.0,9.0,-100.00,ENE,65,0.0,0.0,32,-99.99,,,-99.99,,2013-02-11 04:52:00,